createdAt,value
2018-09-09T00:03:32.255Z,2.73
2018-09-09T00:08:35.938Z,2.97
2018-09-09T00:13:39.901Z,3.20
2018-09-09T00:18:43.596Z,3.17
2018-09-09T00:23:47.411Z,4.00
2018-09-09T00:28:51.148Z,3.03
2018-09-09T00:33:54.805Z,3.93
2018-09-09T00:38:58.463Z,2.87
2018-09-09T00:44:02.319Z,3.83
2018-09-09T00:49:11.581Z,3.67
2018-09-09T00:54:15.602Z,4.40
2018-09-09T00:59:19.317Z,3.07
2018-09-09T01:04:23.053Z,4.23
2018-09-09T01:09:33.339Z,3.20
2018-09-09T01:14:36.932Z,4.07
2018-09-09T01:19:41.028Z,4.73
2018-09-09T01:24:44.632Z,3.50
2018-09-09T01:29:48.250Z,4.20
2018-09-09T01:34:54.336Z,4.10
2018-09-09T01:39:58.600Z,3.60
2018-09-09T01:45:02.195Z,4.13
2018-09-09T01:50:06.141Z,4.27
2018-09-09T01:55:09.894Z,4.13
2018-09-09T02:00:18.185Z,4.20
2018-09-09T02:05:21.804Z,4.70
2018-09-09T02:10:25.637Z,4.67
2018-09-09T02:15:29.225Z,3.70
2018-09-09T02:20:32.915Z,3.50
2018-09-09T02:25:36.853Z,4.13
2018-09-09T02:30:40.712Z,4.97
2018-09-09T02:35:44.348Z,3.97
2018-09-09T02:40:48.126Z,4.10
2018-09-09T02:45:51.919Z,3.53
2018-09-09T02:50:55.534Z,4.70
2018-09-09T02:55:59.565Z,4.03
2018-09-09T03:01:03.377Z,4.13
2018-09-09T03:06:06.859Z,3.70
2018-09-09T03:11:15.591Z,3.63
2018-09-09T03:16:19.371Z,4.50
2018-09-09T03:21:23.124Z,4.10
2018-09-09T03:26:26.749Z,3.90
2018-09-09T03:31:30.461Z,4.27
2018-09-09T03:36:33.993Z,3.90
2018-09-09T03:41:44.778Z,3.93
2018-09-09T03:46:48.485Z,3.93
2018-09-09T03:51:52.293Z,3.60
2018-09-09T03:56:55.957Z,3.70
2018-09-09T04:01:59.855Z,4.27
2018-09-09T04:07:03.571Z,4.17
2018-09-09T04:12:07.243Z,4.07
2018-09-09T04:17:10.924Z,4.00
2018-09-09T04:22:14.796Z,3.40
2018-09-09T04:27:18.406Z,4.53
2018-09-09T04:32:22.172Z,3.90
2018-09-09T04:37:25.757Z,3.40
2018-09-09T04:42:29.330Z,3.80
2018-09-09T04:47:33.004Z,3.77
2018-09-09T04:52:36.644Z,3.60
2018-09-09T04:57:40.559Z,3.63
2018-09-09T05:02:44.698Z,4.17
2018-09-09T05:07:48.304Z,3.47
2018-09-09T05:12:52.237Z,3.77
2018-09-09T05:17:55.920Z,3.77
2018-09-09T05:22:59.580Z,4.00
2018-09-09T05:28:03.105Z,4.17
2018-09-09T05:33:07.085Z,3.23
2018-09-09T05:38:10.679Z,3.03
2018-09-09T05:43:14.663Z,3.50
2018-09-09T05:48:18.597Z,3.30
2018-09-09T05:53:22.249Z,4.30
2018-09-09T05:58:25.824Z,3.67
2018-09-09T06:03:29.415Z,4.80
2018-09-09T06:08:33.195Z,3.60
2018-09-09T06:13:36.880Z,3.83
2018-09-09T06:18:40.516Z,4.13
2018-09-09T06:23:44.466Z,5.97
2018-09-09T06:28:48.314Z,4.17
2018-09-09T06:33:52.090Z,4.07
2018-09-09T06:38:55.690Z,3.50
2018-09-09T06:43:59.366Z,3.30
2018-09-09T06:49:02.988Z,4.10
2018-09-09T06:54:06.576Z,3.53
2018-09-09T06:59:10.431Z,3.97
2018-09-09T07:04:14.105Z,3.80
2018-09-09T07:09:18.177Z,3.73
2018-09-09T07:14:21.831Z,3.70
2018-09-09T07:19:25.448Z,4.00
2018-09-09T07:24:30.407Z,3.77
2018-09-09T07:29:34.163Z,4.20
2018-09-09T07:34:37.802Z,4.23
2018-09-09T07:39:41.424Z,3.93
2018-09-09T07:44:45.297Z,4.53
2018-09-09T07:49:49.268Z,4.67
2018-09-09T07:54:53.035Z,3.47
2018-09-09T07:59:57.672Z,4.30
2018-09-09T08:05:01.228Z,4.90
2018-09-09T08:10:04.900Z,3.60
2018-09-09T08:15:08.868Z,3.50
2018-09-09T08:20:12.591Z,3.43
2018-09-09T08:25:16.342Z,3.03
2018-09-09T08:30:31.416Z,2.97
2018-09-09T08:35:34.979Z,2.63
2018-09-09T08:40:38.757Z,2.67
2018-09-09T08:45:42.925Z,3.63
2018-09-09T08:50:52.731Z,2.60
2018-09-09T08:55:56.429Z,2.60
2018-09-09T09:01:00.235Z,2.47
2018-09-09T09:06:03.891Z,2.07
2018-09-09T09:11:07.499Z,2.37
2018-09-09T09:16:11.167Z,2.03
2018-09-09T09:21:14.932Z,2.73
2018-09-09T09:26:18.788Z,2.67
2018-09-09T09:31:22.684Z,2.60
2018-09-09T09:36:26.511Z,2.67
2018-09-09T09:41:30.119Z,2.60
2018-09-09T09:46:33.859Z,2.03
2018-09-09T09:51:37.462Z,2.17
2018-09-09T09:56:41.083Z,2.17
2018-09-09T10:01:44.771Z,1.63
2018-09-09T10:06:48.714Z,2.27
2018-09-09T10:11:52.410Z,2.40
2018-09-09T10:16:56.120Z,2.13
2018-09-09T10:22:00.115Z,2.23
2018-09-09T10:27:04.424Z,1.30
2018-09-09T10:32:10.383Z,1.40
2018-09-09T10:37:14.442Z,1.63
2018-09-09T10:42:18.079Z,1.40
2018-09-09T10:47:22.161Z,1.97
2018-09-09T10:52:25.816Z,1.23
2018-09-09T10:57:30.080Z,1.80
2018-09-09T11:02:33.668Z,1.67
2018-09-09T11:07:38.248Z,1.70
2018-09-09T11:12:42.173Z,1.80
2018-09-09T11:17:45.779Z,1.53
2018-09-09T11:22:49.409Z,1.53
2018-09-09T11:27:53.131Z,1.90
2018-09-09T11:32:56.986Z,1.50
2018-09-09T11:38:00.718Z,1.57
2018-09-09T11:43:05.681Z,1.57
2018-09-09T11:48:09.622Z,1.10
2018-09-09T11:53:13.377Z,1.50
2018-09-09T11:58:18.393Z,0.90
2018-09-09T12:03:21.963Z,1.60
2018-09-09T12:08:31.570Z,1.57
2018-09-09T12:13:35.753Z,1.50
2018-09-09T12:18:39.364Z,1.77
2018-09-09T12:23:43.147Z,2.07
2018-09-09T12:28:46.775Z,1.90
2018-09-09T12:33:50.380Z,1.60
2018-09-09T12:38:54.108Z,1.53
2018-09-09T12:44:02.935Z,1.80
2018-09-09T12:49:07.823Z,2.20
2018-09-09T12:54:11.678Z,1.90
2018-09-09T12:59:15.347Z,1.73
2018-09-09T13:04:18.957Z,2.20
2018-09-09T13:09:26.152Z,1.60
2018-09-09T13:14:31.539Z,2.07
2018-09-09T13:19:37.040Z,2.00
2018-09-09T13:24:41.924Z,2.33
2018-09-09T13:29:45.770Z,2.00
2018-09-09T13:34:49.366Z,1.53
2018-09-09T13:39:53.302Z,1.80
2018-09-09T13:44:57.472Z,1.20
2018-09-09T13:50:01.138Z,1.70
2018-09-09T13:55:04.810Z,1.30
2018-09-09T14:00:08.423Z,1.67
2018-09-09T14:05:12.295Z,1.53
2018-09-09T14:10:16.532Z,1.97
2018-09-09T14:15:20.497Z,1.50
2018-09-09T14:20:35.395Z,1.43
2018-09-09T14:25:39.132Z,1.40
2018-09-09T14:30:42.751Z,1.87
2018-09-09T14:35:47.733Z,1.00
2018-09-09T14:40:51.326Z,1.23
2018-09-09T14:45:54.939Z,1.40
2018-09-09T14:50:58.599Z,2.07
2018-09-09T14:56:02.188Z,1.70
2018-09-09T15:01:05.920Z,2.03
2018-09-09T15:06:09.512Z,1.27
2018-09-09T15:11:13.547Z,1.20
2018-09-09T15:16:17.600Z,1.50
2018-09-09T15:21:21.222Z,1.20
2018-09-09T15:26:25.047Z,1.37
2018-09-09T15:31:28.760Z,1.57
2018-09-09T15:36:32.411Z,1.33
2018-09-09T15:41:36.059Z,2.13
2018-09-09T15:46:39.668Z,1.23
2018-09-09T15:51:43.233Z,1.20
2018-09-09T15:56:46.937Z,1.10
2018-09-09T16:01:50.481Z,1.80
2018-09-09T16:06:54.285Z,1.70
2018-09-09T16:11:57.844Z,1.43
2018-09-09T16:17:01.402Z,1.40
2018-09-09T16:22:05.030Z,1.50
2018-09-09T16:27:08.633Z,1.47
2018-09-09T16:32:12.374Z,1.60
2018-09-09T16:37:15.966Z,1.87
2018-09-09T16:42:19.678Z,1.70
2018-09-09T16:47:23.453Z,1.73
2018-09-09T16:52:28.029Z,2.13
2018-09-09T16:57:31.676Z,1.80
2018-09-09T17:02:35.638Z,1.80
2018-09-09T17:07:39.478Z,1.77
2018-09-09T17:12:43.107Z,1.97
2018-09-09T17:17:46.897Z,1.50
2018-09-09T17:22:50.486Z,1.57
2018-09-09T17:27:54.251Z,2.40
2018-09-09T17:32:57.918Z,1.57
2018-09-09T17:38:01.572Z,1.57
2018-09-09T17:43:05.163Z,1.93
2018-09-09T17:48:08.987Z,1.70
2018-09-09T17:53:12.703Z,1.63
2018-09-09T17:58:16.376Z,1.53
2018-09-09T18:03:20.195Z,1.55
2018-09-09T18:08:23.763Z,1.57
2018-09-09T18:13:27.994Z,1.70
2018-09-09T18:18:31.816Z,1.47
2018-09-09T18:23:35.503Z,2.77
2018-09-09T18:28:39.254Z,2.20
2018-09-09T18:33:42.921Z,1.93
2018-09-09T18:38:46.561Z,1.93
2018-09-09T18:43:50.441Z,1.90
2018-09-09T18:48:54.068Z,1.80
2018-09-09T18:53:57.842Z,1.67
2018-09-09T18:59:01.739Z,1.97
2018-09-09T19:04:05.627Z,1.97
2018-09-09T19:09:09.341Z,1.90
2018-09-09T19:14:13.450Z,1.73
2018-09-09T19:19:17.100Z,1.33
2018-09-09T19:24:20.734Z,1.93
2018-09-09T19:29:24.395Z,1.77
2018-09-09T19:34:28.038Z,2.07
2018-09-09T19:39:31.657Z,1.50
2018-09-09T19:44:35.254Z,1.63
2018-09-09T19:49:38.829Z,1.73
2018-09-09T19:54:42.848Z,1.40
2018-09-09T19:59:46.638Z,2.03
2018-09-09T20:04:50.296Z,1.67
2018-09-09T20:09:53.860Z,2.47
2018-09-09T20:14:58.106Z,2.00
2018-09-09T20:20:01.831Z,2.47
2018-09-09T20:25:05.465Z,2.27
2018-09-09T20:30:12.974Z,2.17
2018-09-09T20:35:17.426Z,2.23
2018-09-09T20:40:21.829Z,2.20
2018-09-09T20:45:26.529Z,1.97
2018-09-09T20:50:30.719Z,2.27
2018-09-09T20:55:35.186Z,2.00
2018-09-09T21:00:39.469Z,2.67
2018-09-09T21:05:43.041Z,2.03
2018-09-09T21:10:46.586Z,2.33
2018-09-09T21:15:50.982Z,2.83
2018-09-09T21:20:56.719Z,2.47
2018-09-09T21:26:00.463Z,2.93
2018-09-09T21:31:04.310Z,2.83
2018-09-09T21:36:08.103Z,2.43
2018-09-09T21:41:11.921Z,2.50
2018-09-09T21:46:15.797Z,2.70
2018-09-09T21:51:19.422Z,2.83
2018-09-09T21:56:23.104Z,3.60
2018-09-09T22:01:32.247Z,2.97
2018-09-09T22:06:35.882Z,2.80
2018-09-09T22:11:39.730Z,2.87
2018-09-09T22:16:43.445Z,2.73
2018-09-09T22:21:48.834Z,3.17
2018-09-09T22:26:52.592Z,3.67
2018-09-09T22:31:56.310Z,3.47
2018-09-09T22:37:08.836Z,2.37
2018-09-09T22:42:12.654Z,3.20
2018-09-09T22:47:16.231Z,3.00
2018-09-09T22:52:20.022Z,3.10
2018-09-09T22:57:23.789Z,2.13
2018-09-09T23:02:27.623Z,2.87
2018-09-09T23:07:31.246Z,3.07
2018-09-09T23:12:34.927Z,2.33
2018-09-09T23:17:38.464Z,2.83
2018-09-09T23:22:42.041Z,2.80
2018-09-09T23:27:45.803Z,2.50
2018-09-09T23:32:49.613Z,2.13
2018-09-09T23:37:53.192Z,2.67
2018-09-09T23:42:56.845Z,2.90
2018-09-09T23:48:00.446Z,2.33
2018-09-09T23:53:04.039Z,2.60
2018-09-09T23:58:07.785Z,2.57
